sensor_id;sensor_type;location;lat;lon;timestamp;P1;durP1;ratioP1;P2;durP2;ratioP2
59756;SDS011;45631;51.962;5.974;2023-02-28T00:01:24;7.40;;;3.88;;
59756;SDS011;45631;51.962;5.974;2023-02-28T00:03:53;7.57;;;3.42;;
59756;SDS011;45631;51.962;5.974;2023-02-28T00:06:21;7.10;;;3.63;;
59756;SDS011;45631;51.962;5.974;2023-02-28T00:08:51;8.23;;;3.70;;
59756;SDS011;45631;51.962;5.974;2023-02-28T00:11:20;7.03;;;3.40;;
59756;SDS011;45631;51.962;5.974;2023-02-28T00:13:48;6.93;;;3.40;;
59756;SDS011;45631;51.962;5.974;2023-02-28T00:16:17;6.78;;;3.78;;
59756;SDS011;45631;51.962;5.974;2023-02-28T00:18:46;7.68;;;3.47;;
59756;SDS011;45631;51.962;5.974;2023-02-28T00:21:17;7.32;;;3.50;;
59756;SDS011;45631;51.962;5.974;2023-02-28T00:23:46;8.35;;;3.40;;
59756;SDS011;45631;51.962;5.974;2023-02-28T00:26:16;8.30;;;3.67;;
59756;SDS011;45631;51.962;5.974;2023-02-28T00:28:47;7.93;;;4.05;;
59756;SDS011;45631;51.962;5.974;2023-02-28T00:31:15;7.28;;;3.85;;
59756;SDS011;45631;51.962;5.974;2023-02-28T00:33:43;8.50;;;3.25;;
59756;SDS011;45631;51.962;5.974;2023-02-28T00:36:12;10.13;;;3.67;;
59756;SDS011;45631;51.962;5.974;2023-02-28T00:38:40;8.07;;;3.95;;
59756;SDS011;45631;51.962;5.974;2023-02-28T00:41:11;8.03;;;3.37;;
59756;SDS011;45631;51.962;5.974;2023-02-28T00:43:41;9.13;;;3.72;;
59756;SDS011;45631;51.962;5.974;2023-02-28T00:46:09;8.20;;;3.67;;
59756;SDS011;45631;51.962;5.974;2023-02-28T00:48:37;9.07;;;3.88;;
59756;SDS011;45631;51.962;5.974;2023-02-28T00:51:05;8.80;;;4.00;;
59756;SDS011;45631;51.962;5.974;2023-02-28T00:53:34;7.70;;;3.55;;
59756;SDS011;45631;51.962;5.974;2023-02-28T00:56:02;7.10;;;3.85;;
59756;SDS011;45631;51.962;5.974;2023-02-28T00:58:31;7.15;;;3.60;;
59756;SDS011;45631;51.962;5.974;2023-02-28T01:01:00;8.57;;;3.65;;
59756;SDS011;45631;51.962;5.974;2023-02-28T01:03:28;10.45;;;4.13;;
59756;SDS011;45631;51.962;5.974;2023-02-28T01:05:57;9.23;;;3.67;;
59756;SDS011;45631;51.962;5.974;2023-02-28T01:08:25;8.18;;;4.00;;
59756;SDS011;45631;51.962;5.974;2023-02-28T01:10:54;7.72;;;3.88;;
59756;SDS011;45631;51.962;5.974;2023-02-28T01:13:25;8.23;;;4.00;;
59756;SDS011;45631;51.962;5.974;2023-02-28T01:15:55;9.77;;;4.22;;
59756;SDS011;45631;51.962;5.974;2023-02-28T01:18:25;8.57;;;3.80;;
59756;SDS011;45631;51.962;5.974;2023-02-28T01:20:53;7.72;;;3.80;;
59756;SDS011;45631;51.962;5.974;2023-02-28T01:23:22;7.70;;;3.85;;
59756;SDS011;45631;51.962;5.974;2023-02-28T01:25:51;8.65;;;4.15;;
59756;SDS011;45631;51.962;5.974;2023-02-28T01:28:19;8.30;;;3.53;;
59756;SDS011;45631;51.962;5.974;2023-02-28T01:30:48;8.55;;;3.85;;
59756;SDS011;45631;51.962;5.974;2023-02-28T01:33:16;10.20;;;4.50;;
59756;SDS011;45631;51.962;5.974;2023-02-28T01:35:46;8.43;;;4.03;;
59756;SDS011;45631;51.962;5.974;2023-02-28T01:38:14;7.78;;;4.32;;
59756;SDS011;45631;51.962;5.974;2023-02-28T01:40:48;6.43;;;3.60;;
59756;SDS011;45631;51.962;5.974;2023-02-28T01:43:19;9.15;;;4.55;;
59756;SDS011;45631;51.962;5.974;2023-02-28T01:45:51;8.10;;;3.85;;
59756;SDS011;45631;51.962;5.974;2023-02-28T01:48:21;8.13;;;4.07;;
59756;SDS011;45631;51.962;5.974;2023-02-28T01:50:55;10.65;;;4.22;;
59756;SDS011;45631;51.962;5.974;2023-02-28T01:53:29;8.77;;;4.35;;
59756;SDS011;45631;51.962;5.974;2023-02-28T01:56:01;7.20;;;4.15;;
59756;SDS011;45631;51.962;5.974;2023-02-28T01:58:33;9.50;;;4.35;;
59756;SDS011;45631;51.962;5.974;2023-02-28T02:01:02;8.95;;;4.50;;
59756;SDS011;45631;51.962;5.974;2023-02-28T02:03:31;10.68;;;4.65;;
59756;SDS011;45631;51.962;5.974;2023-02-28T02:06:01;9.68;;;4.82;;
59756;SDS011;45631;51.962;5.974;2023-02-28T02:08:29;8.80;;;4.47;;
59756;SDS011;45631;51.962;5.974;2023-02-28T02:10:58;8.32;;;3.92;;
59756;SDS011;45631;51.962;5.974;2023-02-28T02:13:34;9.90;;;4.13;;
59756;SDS011;45631;51.962;5.974;2023-02-28T02:16:18;8.50;;;4.60;;
59756;SDS011;45631;51.962;5.974;2023-02-28T02:19:05;9.43;;;4.68;;
59756;SDS011;45631;51.962;5.974;2023-02-28T02:24:53;7.90;;;4.40;;
59756;SDS011;45631;51.962;5.974;2023-02-28T02:27:37;8.85;;;4.35;;
59756;SDS011;45631;51.962;5.974;2023-02-28T02:30:20;8.95;;;4.57;;
59756;SDS011;45631;51.962;5.974;2023-02-28T02:33:16;9.70;;;4.60;;
59756;SDS011;45631;51.962;5.974;2023-02-28T02:36:07;7.32;;;4.00;;
59756;SDS011;45631;51.962;5.974;2023-02-28T02:38:42;9.00;;;4.38;;
59756;SDS011;45631;51.962;5.974;2023-02-28T02:41:19;10.88;;;4.78;;
59756;SDS011;45631;51.962;5.974;2023-02-28T02:43:56;8.48;;;4.75;;
59756;SDS011;45631;51.962;5.974;2023-02-28T02:46:32;7.88;;;4.38;;
59756;SDS011;45631;51.962;5.974;2023-02-28T02:49:03;8.60;;;4.43;;
59756;SDS011;45631;51.962;5.974;2023-02-28T02:51:35;7.40;;;4.05;;
59756;SDS011;45631;51.962;5.974;2023-02-28T02:54:07;8.77;;;4.20;;
59756;SDS011;45631;51.962;5.974;2023-02-28T02:56:40;10.25;;;4.85;;
59756;SDS011;45631;51.962;5.974;2023-02-28T02:59:11;10.77;;;4.60;;
59756;SDS011;45631;51.962;5.974;2023-02-28T03:01:42;9.38;;;5.13;;
59756;SDS011;45631;51.962;5.974;2023-02-28T03:04:11;9.52;;;4.25;;
59756;SDS011;45631;51.962;5.974;2023-02-28T03:06:45;9.13;;;4.47;;
59756;SDS011;45631;51.962;5.974;2023-02-28T03:09:14;9.65;;;4.70;;
59756;SDS011;45631;51.962;5.974;2023-02-28T03:11:42;9.23;;;4.55;;
59756;SDS011;45631;51.962;5.974;2023-02-28T03:14:14;11.65;;;5.10;;
59756;SDS011;45631;51.962;5.974;2023-02-28T03:17:03;10.60;;;4.65;;
59756;SDS011;45631;51.962;5.974;2023-02-28T03:19:51;8.27;;;4.18;;
59756;SDS011;45631;51.962;5.974;2023-02-28T03:22:42;11.98;;;4.47;;
59756;SDS011;45631;51.962;5.974;2023-02-28T03:25:29;7.90;;;4.05;;
59756;SDS011;45631;51.962;5.974;2023-02-28T03:28:05;7.47;;;3.83;;
59756;SDS011;45631;51.962;5.974;2023-02-28T03:30:42;10.20;;;3.97;;
59756;SDS011;45631;51.962;5.974;2023-02-28T03:33:21;9.07;;;3.92;;
59756;SDS011;45631;51.962;5.974;2023-02-28T03:35:52;6.93;;;3.60;;
59756;SDS011;45631;51.962;5.974;2023-02-28T03:38:27;9.27;;;3.72;;
59756;SDS011;45631;51.962;5.974;2023-02-28T03:41:02;8.75;;;3.42;;
59756;SDS011;45631;51.962;5.974;2023-02-28T03:43:35;7.47;;;3.58;;
59756;SDS011;45631;51.962;5.974;2023-02-28T03:46:07;7.53;;;3.53;;
59756;SDS011;45631;51.962;5.974;2023-02-28T03:48:39;7.53;;;3.72;;
59756;SDS011;45631;51.962;5.974;2023-02-28T03:53:45;9.05;;;4.22;;
59756;SDS011;45631;51.962;5.974;2023-02-28T03:56:18;7.03;;;3.78;;
59756;SDS011;45631;51.962;5.974;2023-02-28T03:58:51;7.70;;;4.10;;
59756;SDS011;45631;51.962;5.974;2023-02-28T04:01:26;8.40;;;4.15;;
59756;SDS011;45631;51.962;5.974;2023-02-28T04:03:59;11.27;;;3.70;;
59756;SDS011;45631;51.962;5.974;2023-02-28T04:06:29;6.53;;;3.70;;
59756;SDS011;45631;51.962;5.974;2023-02-28T04:09:01;8.35;;;3.95;;
59756;SDS011;45631;51.962;5.974;2023-02-28T04:11:32;6.88;;;3.50;;
59756;SDS011;45631;51.962;5.974;2023-02-28T04:16:31;7.03;;;3.42;;
59756;SDS011;45631;51.962;5.974;2023-02-28T04:19:01;7.93;;;3.88;;
59756;SDS011;45631;51.962;5.974;2023-02-28T04:21:32;7.18;;;3.40;;
59756;SDS011;45631;51.962;5.974;2023-02-28T04:24:04;6.28;;;3.20;;
59756;SDS011;45631;51.962;5.974;2023-02-28T04:26:33;6.63;;;3.63;;
59756;SDS011;45631;51.962;5.974;2023-02-28T04:29:03;6.78;;;3.53;;
59756;SDS011;45631;51.962;5.974;2023-02-28T04:31:33;9.27;;;3.58;;
59756;SDS011;45631;51.962;5.974;2023-02-28T04:34:02;6.85;;;3.40;;
59756;SDS011;45631;51.962;5.974;2023-02-28T04:36:30;8.10;;;3.20;;
59756;SDS011;45631;51.962;5.974;2023-02-28T04:38:59;7.22;;;3.50;;
59756;SDS011;45631;51.962;5.974;2023-02-28T04:41:28;7.93;;;3.22;;
59756;SDS011;45631;51.962;5.974;2023-02-28T04:43:58;6.90;;;3.10;;
59756;SDS011;45631;51.962;5.974;2023-02-28T04:46:26;7.50;;;3.13;;
59756;SDS011;45631;51.962;5.974;2023-02-28T04:48:54;8.73;;;3.78;;
59756;SDS011;45631;51.962;5.974;2023-02-28T04:51:25;5.90;;;2.83;;
59756;SDS011;45631;51.962;5.974;2023-02-28T04:53:54;7.30;;;2.80;;
59756;SDS011;45631;51.962;5.974;2023-02-28T04:56:23;6.00;;;2.55;;
59756;SDS011;45631;51.962;5.974;2023-02-28T04:58:52;7.32;;;2.75;;
59756;SDS011;45631;51.962;5.974;2023-02-28T05:01:22;7.18;;;3.05;;
59756;SDS011;45631;51.962;5.974;2023-02-28T05:03:53;8.50;;;3.00;;
59756;SDS011;45631;51.962;5.974;2023-02-28T05:06:25;5.77;;;2.37;;
59756;SDS011;45631;51.962;5.974;2023-02-28T05:08:54;5.78;;;2.95;;
59756;SDS011;45631;51.962;5.974;2023-02-28T05:11:23;9.30;;;3.40;;
59756;SDS011;45631;51.962;5.974;2023-02-28T05:13:55;8.68;;;2.60;;
59756;SDS011;45631;51.962;5.974;2023-02-28T05:16:26;7.35;;;2.90;;
59756;SDS011;45631;51.962;5.974;2023-02-28T05:18:54;5.40;;;2.50;;
59756;SDS011;45631;51.962;5.974;2023-02-28T05:21:26;7.00;;;2.70;;
59756;SDS011;45631;51.962;5.974;2023-02-28T05:23:57;4.55;;;2.65;;
59756;SDS011;45631;51.962;5.974;2023-02-28T05:26:27;6.40;;;2.92;;
59756;SDS011;45631;51.962;5.974;2023-02-28T05:28:57;7.97;;;3.08;;
59756;SDS011;45631;51.962;5.974;2023-02-28T05:31:25;4.57;;;2.58;;
59756;SDS011;45631;51.962;5.974;2023-02-28T05:33:54;6.90;;;3.00;;
59756;SDS011;45631;51.962;5.974;2023-02-28T05:36:22;7.50;;;3.05;;
59756;SDS011;45631;51.962;5.974;2023-02-28T05:38:51;6.20;;;3.00;;
59756;SDS011;45631;51.962;5.974;2023-02-28T05:41:19;6.38;;;3.30;;
59756;SDS011;45631;51.962;5.974;2023-02-28T05:43:48;4.63;;;2.45;;
59756;SDS011;45631;51.962;5.974;2023-02-28T05:46:18;6.28;;;2.63;;
59756;SDS011;45631;51.962;5.974;2023-02-28T05:48:46;5.70;;;2.78;;
59756;SDS011;45631;51.962;5.974;2023-02-28T05:51:16;6.43;;;2.83;;
59756;SDS011;45631;51.962;5.974;2023-02-28T05:53:44;5.10;;;2.78;;
59756;SDS011;45631;51.962;5.974;2023-02-28T05:56:14;5.40;;;2.50;;
59756;SDS011;45631;51.962;5.974;2023-02-28T05:58:42;6.32;;;2.70;;
59756;SDS011;45631;51.962;5.974;2023-02-28T06:01:22;8.20;;;2.60;;
59756;SDS011;45631;51.962;5.974;2023-02-28T06:03:54;6.43;;;3.10;;
59756;SDS011;45631;51.962;5.974;2023-02-28T06:06:22;8.07;;;4.10;;
59756;SDS011;45631;51.962;5.974;2023-02-28T06:08:51;6.78;;;3.70;;
59756;SDS011;45631;51.962;5.974;2023-02-28T06:11:19;7.18;;;2.70;;
59756;SDS011;45631;51.962;5.974;2023-02-28T06:13:47;7.53;;;2.70;;
59756;SDS011;45631;51.962;5.974;2023-02-28T06:16:15;7.38;;;3.00;;
59756;SDS011;45631;51.962;5.974;2023-02-28T06:18:44;7.45;;;2.78;;
59756;SDS011;45631;51.962;5.974;2023-02-28T06:21:13;7.97;;;3.33;;
59756;SDS011;45631;51.962;5.974;2023-02-28T06:23:41;9.27;;;2.95;;
59756;SDS011;45631;51.962;5.974;2023-02-28T06:26:09;7.40;;;2.90;;
59756;SDS011;45631;51.962;5.974;2023-02-28T06:28:37;5.30;;;2.63;;
59756;SDS011;45631;51.962;5.974;2023-02-28T06:31:06;5.00;;;2.47;;
59756;SDS011;45631;51.962;5.974;2023-02-28T06:33:35;5.78;;;2.35;;
59756;SDS011;45631;51.962;5.974;2023-02-28T06:36:06;6.22;;;2.45;;
59756;SDS011;45631;51.962;5.974;2023-02-28T06:38:35;4.68;;;2.30;;
59756;SDS011;45631;51.962;5.974;2023-02-28T06:41:04;6.30;;;2.83;;
59756;SDS011;45631;51.962;5.974;2023-02-28T06:43:34;10.10;;;2.90;;
59756;SDS011;45631;51.962;5.974;2023-02-28T06:46:04;9.73;;;2.85;;
59756;SDS011;45631;51.962;5.974;2023-02-28T06:48:34;6.30;;;2.60;;
59756;SDS011;45631;51.962;5.974;2023-02-28T06:51:03;5.93;;;2.55;;
59756;SDS011;45631;51.962;5.974;2023-02-28T06:53:34;6.70;;;2.83;;
59756;SDS011;45631;51.962;5.974;2023-02-28T06:56:03;7.32;;;2.80;;
59756;SDS011;45631;51.962;5.974;2023-02-28T06:58:33;6.90;;;2.80;;
59756;SDS011;45631;51.962;5.974;2023-02-28T07:01:01;8.43;;;2.50;;
59756;SDS011;45631;51.962;5.974;2023-02-28T07:03:31;7.18;;;2.92;;
59756;SDS011;45631;51.962;5.974;2023-02-28T07:06:00;6.18;;;2.60;;
59756;SDS011;45631;51.962;5.974;2023-02-28T07:08:30;7.55;;;2.60;;
59756;SDS011;45631;51.962;5.974;2023-02-28T07:10:59;7.05;;;3.00;;
59756;SDS011;45631;51.962;5.974;2023-02-28T07:13:27;6.80;;;2.97;;
59756;SDS011;45631;51.962;5.974;2023-02-28T07:15:56;5.25;;;2.92;;
59756;SDS011;45631;51.962;5.974;2023-02-28T07:18:26;7.90;;;2.90;;
59756;SDS011;45631;51.962;5.974;2023-02-28T07:20:54;6.40;;;2.85;;
59756;SDS011;45631;51.962;5.974;2023-02-28T07:23:23;7.60;;;3.35;;
59756;SDS011;45631;51.962;5.974;2023-02-28T07:25:53;7.68;;;3.55;;
59756;SDS011;45631;51.962;5.974;2023-02-28T07:28:21;7.00;;;3.40;;
59756;SDS011;45631;51.962;5.974;2023-02-28T07:30:49;10.88;;;3.35;;
59756;SDS011;45631;51.962;5.974;2023-02-28T07:33:17;7.75;;;3.60;;
59756;SDS011;45631;51.962;5.974;2023-02-28T07:35:45;8.05;;;3.17;;
59756;SDS011;45631;51.962;5.974;2023-02-28T07:38:13;7.70;;;3.63;;
59756;SDS011;45631;51.962;5.974;2023-02-28T07:40:42;7.53;;;3.42;;
59756;SDS011;45631;51.962;5.974;2023-02-28T07:43:11;6.97;;;2.90;;
59756;SDS011;45631;51.962;5.974;2023-02-28T07:45:39;6.93;;;3.28;;
59756;SDS011;45631;51.962;5.974;2023-02-28T07:48:07;6.65;;;3.20;;
59756;SDS011;45631;51.962;5.974;2023-02-28T07:50:39;9.52;;;3.95;;
59756;SDS011;45631;51.962;5.974;2023-02-28T07:53:07;8.93;;;3.50;;
59756;SDS011;45631;51.962;5.974;2023-02-28T07:55:35;7.00;;;3.10;;
59756;SDS011;45631;51.962;5.974;2023-02-28T07:58:03;6.95;;;3.30;;
59756;SDS011;45631;51.962;5.974;2023-02-28T08:00:32;7.90;;;3.60;;
59756;SDS011;45631;51.962;5.974;2023-02-28T08:03:00;6.30;;;3.15;;
59756;SDS011;45631;51.962;5.974;2023-02-28T08:05:29;6.88;;;3.00;;
59756;SDS011;45631;51.962;5.974;2023-02-28T08:07:57;7.28;;;3.20;;
59756;SDS011;45631;51.962;5.974;2023-02-28T08:10:25;6.40;;;2.92;;
59756;SDS011;45631;51.962;5.974;2023-02-28T08:12:53;6.57;;;2.75;;
59756;SDS011;45631;51.962;5.974;2023-02-28T08:15:21;6.85;;;2.90;;
59756;SDS011;45631;51.962;5.974;2023-02-28T08:17:51;7.07;;;3.00;;
59756;SDS011;45631;51.962;5.974;2023-02-28T08:20:19;6.20;;;2.70;;
59756;SDS011;45631;51.962;5.974;2023-02-28T08:22:47;5.90;;;2.17;;
59756;SDS011;45631;51.962;5.974;2023-02-28T08:25:18;5.50;;;2.50;;
59756;SDS011;45631;51.962;5.974;2023-02-28T08:27:47;7.45;;;2.58;;
59756;SDS011;45631;51.962;5.974;2023-02-28T08:30:17;4.25;;;2.00;;
59756;SDS011;45631;51.962;5.974;2023-02-28T08:32:48;5.05;;;2.20;;
59756;SDS011;45631;51.962;5.974;2023-02-28T08:35:17;4.50;;;1.95;;
59756;SDS011;45631;51.962;5.974;2023-02-28T08:37:47;5.28;;;2.10;;
59756;SDS011;45631;51.962;5.974;2023-02-28T08:42:46;4.78;;;1.90;;
59756;SDS011;45631;51.962;5.974;2023-02-28T08:45:14;7.35;;;2.70;;
59756;SDS011;45631;51.962;5.974;2023-02-28T08:47:43;5.65;;;2.30;;
59756;SDS011;45631;51.962;5.974;2023-02-28T08:50:11;6.18;;;2.28;;
59756;SDS011;45631;51.962;5.974;2023-02-28T08:52:43;4.65;;;2.10;;
59756;SDS011;45631;51.962;5.974;2023-02-28T08:55:11;4.07;;;2.00;;
59756;SDS011;45631;51.962;5.974;2023-02-28T08:57:39;4.13;;;1.90;;
59756;SDS011;45631;51.962;5.974;2023-02-28T09:00:08;7.35;;;1.90;;
59756;SDS011;45631;51.962;5.974;2023-02-28T09:02:39;3.20;;;1.60;;
59756;SDS011;45631;51.962;5.974;2023-02-28T09:05:10;2.97;;;1.70;;
59756;SDS011;45631;51.962;5.974;2023-02-28T09:07:38;2.90;;;1.42;;
59756;SDS011;45631;51.962;5.974;2023-02-28T09:10:08;2.38;;;1.35;;
59756;SDS011;45631;51.962;5.974;2023-02-28T09:12:37;4.22;;;1.70;;
59756;SDS011;45631;51.962;5.974;2023-02-28T09:15:06;3.15;;;1.52;;
59756;SDS011;45631;51.962;5.974;2023-02-28T09:17:35;2.35;;;1.50;;
59756;SDS011;45631;51.962;5.974;2023-02-28T09:20:04;3.17;;;1.45;;
59756;SDS011;45631;51.962;5.974;2023-02-28T09:22:32;2.67;;;1.60;;
59756;SDS011;45631;51.962;5.974;2023-02-28T09:25:00;2.88;;;1.65;;
59756;SDS011;45631;51.962;5.974;2023-02-28T09:27:30;3.70;;;1.60;;
59756;SDS011;45631;51.962;5.974;2023-02-28T09:29:58;4.32;;;1.60;;
59756;SDS011;45631;51.962;5.974;2023-02-28T09:32:26;4.50;;;2.03;;
59756;SDS011;45631;51.962;5.974;2023-02-28T09:34:55;3.22;;;1.70;;
59756;SDS011;45631;51.962;5.974;2023-02-28T09:37:23;4.13;;;1.90;;
59756;SDS011;45631;51.962;5.974;2023-02-28T09:39:55;4.03;;;1.60;;
59756;SDS011;45631;51.962;5.974;2023-02-28T09:42:27;3.60;;;1.70;;
59756;SDS011;45631;51.962;5.974;2023-02-28T09:45:01;3.47;;;1.80;;
59756;SDS011;45631;51.962;5.974;2023-02-28T09:47:34;3.47;;;1.77;;
59756;SDS011;45631;51.962;5.974;2023-02-28T09:52:45;3.22;;;1.40;;
59756;SDS011;45631;51.962;5.974;2023-02-28T09:55:19;3.17;;;1.40;;
59756;SDS011;45631;51.962;5.974;2023-02-28T09:57:52;4.05;;;1.75;;
59756;SDS011;45631;51.962;5.974;2023-02-28T10:00:21;3.72;;;1.60;;
59756;SDS011;45631;51.962;5.974;2023-02-28T10:05:52;2.65;;;1.38;;
59756;SDS011;45631;51.962;5.974;2023-02-28T10:08:27;4.25;;;1.70;;
59756;SDS011;45631;51.962;5.974;2023-02-28T10:11:00;2.25;;;1.40;;
59756;SDS011;45631;51.962;5.974;2023-02-28T10:13:33;3.33;;;1.50;;
59756;SDS011;45631;51.962;5.974;2023-02-28T10:16:05;2.22;;;1.20;;
59756;SDS011;45631;51.962;5.974;2023-02-28T10:18:39;2.72;;;1.25;;
59756;SDS011;45631;51.962;5.974;2023-02-28T10:21:15;4.22;;;1.50;;
59756;SDS011;45631;51.962;5.974;2023-02-28T10:23:47;3.97;;;1.55;;
59756;SDS011;45631;51.962;5.974;2023-02-28T10:26:17;3.58;;;1.42;;
59756;SDS011;45631;51.962;5.974;2023-02-28T10:28:47;2.72;;;1.40;;
59756;SDS011;45631;51.962;5.974;2023-02-28T10:31:15;2.95;;;1.60;;
59756;SDS011;45631;51.962;5.974;2023-02-28T10:33:46;4.53;;;1.65;;
59756;SDS011;45631;51.962;5.974;2023-02-28T10:36:17;3.03;;;1.40;;
59756;SDS011;45631;51.962;5.974;2023-02-28T10:38:46;3.22;;;1.60;;
59756;SDS011;45631;51.962;5.974;2023-02-28T10:41:17;3.80;;;1.80;;
59756;SDS011;45631;51.962;5.974;2023-02-28T10:46:48;3.08;;;1.50;;
59756;SDS011;45631;51.962;5.974;2023-02-28T10:49:18;5.35;;;1.60;;
59756;SDS011;45631;51.962;5.974;2023-02-28T10:51:50;2.67;;;1.50;;
59756;SDS011;45631;51.962;5.974;2023-02-28T10:54:23;3.33;;;1.58;;
59756;SDS011;45631;51.962;5.974;2023-02-28T10:57:06;4.32;;;2.28;;
59756;SDS011;45631;51.962;5.974;2023-02-28T10:59:45;2.92;;;1.50;;
59756;SDS011;45631;51.962;5.974;2023-02-28T11:02:28;3.22;;;1.73;;
59756;SDS011;45631;51.962;5.974;2023-02-28T11:05:14;3.00;;;1.55;;
59756;SDS011;45631;51.962;5.974;2023-02-28T11:07:54;5.68;;;1.90;;
59756;SDS011;45631;51.962;5.974;2023-02-28T11:10:25;3.90;;;1.50;;
59756;SDS011;45631;51.962;5.974;2023-02-28T11:12:56;3.92;;;1.70;;
59756;SDS011;45631;51.962;5.974;2023-02-28T11:15:28;3.28;;;1.70;;
59756;SDS011;45631;51.962;5.974;2023-02-28T11:17:59;2.33;;;1.30;;
59756;SDS011;45631;51.962;5.974;2023-02-28T11:20:31;3.42;;;1.77;;
59756;SDS011;45631;51.962;5.974;2023-02-28T11:23:03;2.92;;;1.70;;
59756;SDS011;45631;51.962;5.974;2023-02-28T11:25:36;3.88;;;1.75;;
59756;SDS011;45631;51.962;5.974;2023-02-28T11:28:08;2.47;;;1.52;;
59756;SDS011;45631;51.962;5.974;2023-02-28T11:31:04;3.80;;;1.52;;
59756;SDS011;45631;51.962;5.974;2023-02-28T11:33:42;3.60;;;1.50;;
59756;SDS011;45631;51.962;5.974;2023-02-28T11:36:12;2.15;;;1.50;;
59756;SDS011;45631;51.962;5.974;2023-02-28T11:38:42;2.85;;;1.50;;
59756;SDS011;45631;51.962;5.974;2023-02-28T11:41:19;2.88;;;1.50;;
59756;SDS011;45631;51.962;5.974;2023-02-28T11:44:02;3.50;;;1.60;;
59756;SDS011;45631;51.962;5.974;2023-02-28T11:46:56;2.67;;;1.70;;
59756;SDS011;45631;51.962;5.974;2023-02-28T11:49:31;2.78;;;1.58;;
59756;SDS011;45631;51.962;5.974;2023-02-28T11:52:06;3.63;;;1.70;;
59756;SDS011;45631;51.962;5.974;2023-02-28T11:54:52;4.65;;;1.83;;
59756;SDS011;45631;51.962;5.974;2023-02-28T11:57:33;3.33;;;1.63;;
59756;SDS011;45631;51.962;5.974;2023-02-28T12:00:13;2.67;;;1.50;;
59756;SDS011;45631;51.962;5.974;2023-02-28T12:02:53;2.75;;;1.60;;
59756;SDS011;45631;51.962;5.974;2023-02-28T12:05:33;2.72;;;1.73;;
59756;SDS011;45631;51.962;5.974;2023-02-28T12:08:17;3.08;;;1.60;;
59756;SDS011;45631;51.962;5.974;2023-02-28T12:10:57;5.00;;;2.05;;
59756;SDS011;45631;51.962;5.974;2023-02-28T12:13:36;4.75;;;2.15;;
59756;SDS011;45631;51.962;5.974;2023-02-28T12:16:23;2.63;;;1.70;;
59756;SDS011;45631;51.962;5.974;2023-02-28T12:19:09;3.97;;;1.75;;
59756;SDS011;45631;51.962;5.974;2023-02-28T12:21:48;3.85;;;2.05;;
59756;SDS011;45631;51.962;5.974;2023-02-28T12:24:55;3.53;;;1.80;;
59756;SDS011;45631;51.962;5.974;2023-02-28T12:27:48;3.30;;;1.92;;
59756;SDS011;45631;51.962;5.974;2023-02-28T12:30:21;4.03;;;2.20;;
59756;SDS011;45631;51.962;5.974;2023-02-28T12:32:53;5.68;;;2.40;;
59756;SDS011;45631;51.962;5.974;2023-02-28T12:35:26;4.40;;;2.20;;
59756;SDS011;45631;51.962;5.974;2023-02-28T12:38:02;7.15;;;2.00;;
59756;SDS011;45631;51.962;5.974;2023-02-28T12:40:42;4.38;;;2.20;;
59756;SDS011;45631;51.962;5.974;2023-02-28T12:43:14;5.88;;;1.80;;
59756;SDS011;45631;51.962;5.974;2023-02-28T12:45:45;3.92;;;1.60;;
59756;SDS011;45631;51.962;5.974;2023-02-28T12:48:18;5.22;;;2.10;;
59756;SDS011;45631;51.962;5.974;2023-02-28T12:50:50;3.92;;;1.88;;
59756;SDS011;45631;51.962;5.974;2023-02-28T12:53:22;3.63;;;2.10;;
59756;SDS011;45631;51.962;5.974;2023-02-28T12:55:57;4.90;;;1.85;;
59756;SDS011;45631;51.962;5.974;2023-02-28T12:58:38;5.00;;;1.90;;
59756;SDS011;45631;51.962;5.974;2023-02-28T13:01:23;4.13;;;1.80;;
59756;SDS011;45631;51.962;5.974;2023-02-28T13:04:12;3.47;;;1.77;;
59756;SDS011;45631;51.962;5.974;2023-02-28T13:07:04;2.85;;;1.50;;
59756;SDS011;45631;51.962;5.974;2023-02-28T13:09:51;3.90;;;1.60;;
59756;SDS011;45631;51.962;5.974;2023-02-28T13:12:21;2.75;;;1.67;;
59756;SDS011;45631;51.962;5.974;2023-02-28T13:14:50;3.08;;;1.83;;
59756;SDS011;45631;51.962;5.974;2023-02-28T13:17:28;4.03;;;1.85;;
59756;SDS011;45631;51.962;5.974;2023-02-28T13:19:57;2.40;;;1.60;;
59756;SDS011;45631;51.962;5.974;2023-02-28T13:34:39;2.70;;;1.42;;
59756;SDS011;45631;51.962;5.974;2023-02-28T13:40:26;3.13;;;1.70;;
59756;SDS011;45631;51.962;5.974;2023-02-28T13:43:06;2.90;;;1.70;;
59756;SDS011;45631;51.962;5.974;2023-02-28T13:45:36;4.60;;;1.83;;
59756;SDS011;45631;51.962;5.974;2023-02-28T13:48:15;2.90;;;1.65;;
59756;SDS011;45631;51.962;5.974;2023-02-28T13:50:45;3.30;;;1.60;;
59756;SDS011;45631;51.962;5.974;2023-02-28T13:56:30;3.70;;;1.50;;
59756;SDS011;45631;51.962;5.974;2023-02-28T13:59:13;3.40;;;1.50;;
59756;SDS011;45631;51.962;5.974;2023-02-28T14:01:53;3.63;;;1.52;;
59756;SDS011;45631;51.962;5.974;2023-02-28T14:04:50;2.92;;;1.60;;
59756;SDS011;45631;51.962;5.974;2023-02-28T14:07:28;4.30;;;1.77;;
59756;SDS011;45631;51.962;5.974;2023-02-28T14:10:03;3.97;;;1.75;;
59756;SDS011;45631;51.962;5.974;2023-02-28T14:15:33;3.33;;;1.60;;
59756;SDS011;45631;51.962;5.974;2023-02-28T14:18:13;5.18;;;2.00;;
59756;SDS011;45631;51.962;5.974;2023-02-28T14:20:45;4.95;;;2.00;;
59756;SDS011;45631;51.962;5.974;2023-02-28T14:23:30;3.28;;;1.80;;
59756;SDS011;45631;51.962;5.974;2023-02-28T14:26:10;3.92;;;1.70;;
59756;SDS011;45631;51.962;5.974;2023-02-28T14:28:50;3.72;;;1.60;;
59756;SDS011;45631;51.962;5.974;2023-02-28T14:31:39;3.33;;;1.70;;
59756;SDS011;45631;51.962;5.974;2023-02-28T14:34:20;4.53;;;1.90;;
59756;SDS011;45631;51.962;5.974;2023-02-28T14:37:00;3.17;;;1.85;;
59756;SDS011;45631;51.962;5.974;2023-02-28T14:39:30;3.80;;;1.80;;
59756;SDS011;45631;51.962;5.974;2023-02-28T14:41:59;3.35;;;1.75;;
59756;SDS011;45631;51.962;5.974;2023-02-28T14:44:32;4.32;;;1.75;;
59756;SDS011;45631;51.962;5.974;2023-02-28T14:47:03;4.03;;;2.00;;
59756;SDS011;45631;51.962;5.974;2023-02-28T14:49:35;4.45;;;1.83;;
59756;SDS011;45631;51.962;5.974;2023-02-28T14:52:06;4.43;;;1.73;;
59756;SDS011;45631;51.962;5.974;2023-02-28T14:54:40;3.47;;;1.70;;
59756;SDS011;45631;51.962;5.974;2023-02-28T14:57:19;3.38;;;1.73;;
59756;SDS011;45631;51.962;5.974;2023-02-28T14:59:58;3.60;;;1.80;;
59756;SDS011;45631;51.962;5.974;2023-02-28T15:02:37;3.65;;;1.88;;
59756;SDS011;45631;51.962;5.974;2023-02-28T15:08:06;3.58;;;1.83;;
59756;SDS011;45631;51.962;5.974;2023-02-28T15:10:39;3.85;;;1.85;;
59756;SDS011;45631;51.962;5.974;2023-02-28T15:13:11;3.80;;;1.70;;
59756;SDS011;45631;51.962;5.974;2023-02-28T15:15:44;4.00;;;1.80;;
59756;SDS011;45631;51.962;5.974;2023-02-28T15:18:32;4.03;;;1.80;;
59756;SDS011;45631;51.962;5.974;2023-02-28T15:21:12;4.40;;;1.83;;
59756;SDS011;45631;51.962;5.974;2023-02-28T15:23:49;4.93;;;1.90;;
59756;SDS011;45631;51.962;5.974;2023-02-28T15:26:21;4.13;;;1.77;;
59756;SDS011;45631;51.962;5.974;2023-02-28T15:28:55;3.58;;;1.70;;
59756;SDS011;45631;51.962;5.974;2023-02-28T15:31:29;4.65;;;1.90;;
59756;SDS011;45631;51.962;5.974;2023-02-28T15:34:21;3.83;;;1.95;;
59756;SDS011;45631;51.962;5.974;2023-02-28T15:39:58;5.57;;;2.20;;
59756;SDS011;45631;51.962;5.974;2023-02-28T15:42:33;2.33;;;1.58;;
59756;SDS011;45631;51.962;5.974;2023-02-28T15:45:01;3.40;;;1.83;;
59756;SDS011;45631;51.962;5.974;2023-02-28T15:47:31;4.45;;;2.10;;
59756;SDS011;45631;51.962;5.974;2023-02-28T15:50:00;4.20;;;1.90;;
59756;SDS011;45631;51.962;5.974;2023-02-28T15:52:33;4.03;;;2.08;;
59756;SDS011;45631;51.962;5.974;2023-02-28T15:55:07;6.13;;;2.00;;
59756;SDS011;45631;51.962;5.974;2023-02-28T15:57:39;4.18;;;2.00;;
59756;SDS011;45631;51.962;5.974;2023-02-28T16:00:10;4.63;;;2.20;;
59756;SDS011;45631;51.962;5.974;2023-02-28T16:02:41;4.90;;;2.33;;
59756;SDS011;45631;51.962;5.974;2023-02-28T16:07:59;3.50;;;2.00;;
59756;SDS011;45631;51.962;5.974;2023-02-28T16:10:29;4.03;;;2.20;;